createdAt,value
2019-04-01T00:01:57.031Z,101159.64
2019-04-01T00:04:25.593Z,101162.02
2019-04-01T00:06:53.387Z,101166.18
2019-04-01T00:09:21.132Z,101171.75
2019-04-01T00:11:55.084Z,101171.12
2019-04-01T00:14:22.969Z,101173.59
2019-04-01T00:16:50.650Z,101178.70
2019-04-01T00:19:18.419Z,101177.22
2019-04-01T00:21:46.282Z,101176.19
2019-04-01T00:24:14.236Z,101180.46
2019-04-01T00:26:41.957Z,101184.12
2019-04-01T00:29:09.672Z,101183.13
2019-04-01T00:31:37.432Z,101179.95
2019-04-01T00:34:05.301Z,101181.10
2019-04-01T00:36:33.073Z,101185.70
2019-04-01T00:39:00.957Z,101177.56
2019-04-01T00:41:31.706Z,101185.36
2019-04-01T00:44:09.664Z,101184.16
2019-04-01T00:46:37.408Z,101186.14
2019-04-01T00:49:05.108Z,101182.02
2019-04-01T00:51:33.047Z,101179.67
2019-04-01T00:54:00.845Z,101185.13
2019-04-01T00:56:28.686Z,101184.50
2019-04-01T00:58:56.682Z,101186.95
2019-04-01T01:01:24.578Z,101191.84
2019-04-01T01:03:52.277Z,101193.44
2019-04-01T01:06:20.012Z,101190.17
2019-04-01T01:08:47.710Z,101201.72
2019-04-01T01:11:15.499Z,101194.13
2019-04-01T01:13:45.972Z,101197.04
2019-04-01T01:16:13.835Z,101200.80
2019-04-01T01:18:41.501Z,101204.11
2019-04-01T01:21:10.609Z,101203.07
2019-04-01T01:23:39.266Z,101204.58
2019-04-01T01:26:07.030Z,101197.81
2019-04-01T01:28:34.761Z,101197.63
2019-04-01T01:31:02.718Z,101203.45
2019-04-01T01:33:30.395Z,101203.65
2019-04-01T01:35:58.243Z,101203.47
2019-04-01T01:38:25.954Z,101208.34
2019-04-01T01:40:53.699Z,101198.50
2019-04-01T01:43:21.411Z,101210.41
2019-04-01T01:45:49.308Z,101196.45
2019-04-01T01:48:17.094Z,101202.23
2019-04-01T01:50:44.878Z,101214.24
2019-04-01T01:53:12.557Z,101216.98
2019-04-01T01:55:40.304Z,101213.04
2019-04-01T01:58:08.119Z,101210.78
2019-04-01T02:00:37.082Z,101217.05
2019-04-01T02:03:04.791Z,101214.12
2019-04-01T02:05:32.748Z,101214.75
2019-04-01T02:08:00.411Z,101217.30
2019-04-01T02:10:28.263Z,101220.56
2019-04-01T02:12:56.089Z,101220.48
2019-04-01T02:15:23.807Z,101228.16
2019-04-01T02:17:51.565Z,101234.35
2019-04-01T02:20:19.807Z,101240.04
2019-04-01T02:22:47.723Z,101239.66
2019-04-01T02:25:15.590Z,101239.21
2019-04-01T02:27:43.454Z,101241.64
2019-04-01T02:30:11.366Z,101240.88
2019-04-01T02:32:39.266Z,101236.56
2019-04-01T02:35:07.132Z,101234.13
2019-04-01T02:37:36.174Z,101243.48
2019-04-01T02:40:05.205Z,101249.47
2019-04-01T02:42:32.943Z,101240.47
2019-04-01T02:45:00.924Z,101246.27
2019-04-01T02:47:29.824Z,101248.89
2019-04-01T02:49:57.627Z,101245.89
2019-04-01T02:52:26.086Z,101245.31
2019-04-01T02:54:53.810Z,101249.80
2019-04-01T02:57:22.035Z,101253.16
2019-04-01T02:59:49.809Z,101257.72
2019-04-01T03:02:17.695Z,101255.16
2019-04-01T03:04:45.385Z,101253.64
2019-04-01T03:07:13.185Z,101254.20
2019-04-01T03:09:40.851Z,101262.62
2019-04-01T03:12:08.606Z,101261.03
2019-04-01T03:14:36.301Z,101263.73
2019-04-01T03:17:04.883Z,101271.39
2019-04-01T03:19:32.612Z,101271.28
2019-04-01T03:22:00.420Z,101275.84
2019-04-01T03:24:28.249Z,101270.93
2019-04-01T03:26:56.000Z,101271.41
2019-04-01T03:29:23.723Z,101274.75
2019-04-01T03:31:51.517Z,101279.13
2019-04-01T03:34:19.238Z,101274.98
2019-04-01T03:36:46.966Z,101279.26
2019-04-01T03:39:14.754Z,101282.59
2019-04-01T03:41:43.228Z,101277.13
2019-04-01T03:44:11.056Z,101278.71
2019-04-01T03:46:38.846Z,101286.74
2019-04-01T03:49:07.389Z,101281.18
2019-04-01T03:51:35.133Z,101282.98
2019-04-01T03:54:03.047Z,101284.19
2019-04-01T03:56:30.950Z,101286.05
2019-04-01T03:59:00.016Z,101281.06
2019-04-01T04:01:30.293Z,101282.22
2019-04-01T04:03:57.386Z,101283.53
2019-04-01T04:06:25.193Z,101282.38
2019-04-01T04:08:52.923Z,101282.61
2019-04-01T04:11:20.632Z,101281.24
2019-04-01T04:13:48.473Z,101286.58
2019-04-01T04:16:16.285Z,101283.19
2019-04-01T04:18:44.110Z,101278.88
2019-04-01T04:21:12.538Z,101287.34
2019-04-01T04:23:40.348Z,101280.58
2019-04-01T04:26:08.170Z,101287.00
2019-04-01T04:28:35.914Z,101282.36
2019-04-01T04:31:03.799Z,101288.63
2019-04-01T04:33:32.574Z,101288.78
2019-04-01T04:36:00.490Z,101297.56
2019-04-01T04:38:28.385Z,101289.86
2019-04-01T04:40:56.176Z,101296.03
2019-04-01T04:43:24.123Z,101296.09
2019-04-01T04:45:51.925Z,101303.50
2019-04-01T04:48:19.863Z,101302.73
2019-04-01T04:50:47.622Z,101303.66
2019-04-01T04:53:16.152Z,101309.44
2019-04-01T04:55:43.832Z,101310.91
2019-04-01T04:58:12.055Z,101308.28
2019-04-01T05:00:39.865Z,101307.42
2019-04-01T05:03:07.636Z,101313.13
2019-04-01T05:05:35.429Z,101309.66
2019-04-01T05:08:03.286Z,101314.89
2019-04-01T05:10:30.978Z,101317.06
2019-04-01T05:12:58.816Z,101319.14
2019-04-01T05:15:26.574Z,101319.97
2019-04-01T05:17:54.297Z,101325.98
2019-04-01T05:20:21.991Z,101326.69
2019-04-01T05:22:50.384Z,101323.97
2019-04-01T05:25:18.264Z,101327.45
2019-04-01T05:27:47.569Z,101334.30
2019-04-01T05:30:15.607Z,101335.00
2019-04-01T05:32:46.578Z,101336.70
2019-04-01T05:35:15.316Z,101333.77
2019-04-01T05:37:44.181Z,101340.16
2019-04-01T05:40:12.776Z,101339.91
2019-04-01T05:42:41.045Z,101343.00
2019-04-01T05:45:09.416Z,101343.38
2019-04-01T05:47:43.410Z,101344.45
2019-04-01T05:50:11.380Z,101344.47
2019-04-01T05:52:39.298Z,101345.31
2019-04-01T05:55:09.071Z,101346.45
2019-04-01T05:57:37.185Z,101345.37
2019-04-01T06:00:05.498Z,101350.69
2019-04-01T06:02:34.868Z,101345.50
2019-04-01T06:05:02.912Z,101348.13
2019-04-01T06:07:30.766Z,101348.34
2019-04-01T06:09:58.617Z,101356.21
2019-04-01T06:12:26.324Z,101352.83
2019-04-01T06:14:54.554Z,101356.69
2019-04-01T06:17:22.511Z,101355.98
2019-04-01T06:19:51.301Z,101353.05
2019-04-01T06:22:19.553Z,101356.05
2019-04-01T06:24:55.336Z,101364.47
2019-04-01T06:27:23.914Z,101365.68
2019-04-01T06:29:53.144Z,101364.42
2019-04-01T06:32:20.937Z,101375.28
2019-04-01T06:34:53.058Z,101369.27
2019-04-01T06:37:18.518Z,101372.86
2019-04-01T06:39:46.476Z,101369.86
2019-04-01T06:42:14.400Z,101378.98
2019-04-01T06:44:42.355Z,101375.73
2019-04-01T06:47:10.163Z,101376.56
2019-04-01T06:49:38.039Z,101379.71
2019-04-01T06:52:05.959Z,101372.54
2019-04-01T06:54:34.818Z,101382.42
2019-04-01T06:57:02.595Z,101383.25
2019-04-01T06:59:30.729Z,101386.40
2019-04-01T07:01:58.642Z,101381.28
2019-04-01T07:04:26.498Z,101375.34
2019-04-01T07:06:54.207Z,101381.95
2019-04-01T07:09:22.109Z,101381.59
2019-04-01T07:11:49.921Z,101383.50
2019-04-01T07:14:17.913Z,101379.96
2019-04-01T07:16:45.813Z,101375.85
2019-04-01T07:19:14.233Z,101383.11
2019-04-01T07:21:42.128Z,101382.07
2019-04-01T07:24:10.337Z,101373.63
2019-04-01T07:26:38.332Z,101379.07
2019-04-01T07:29:06.575Z,101380.98
2019-04-01T07:31:34.691Z,101384.61
2019-04-01T07:34:02.695Z,101387.88
2019-04-01T07:36:30.569Z,101386.25
2019-04-01T07:38:58.299Z,101388.59
2019-04-01T07:41:26.167Z,101386.11
2019-04-01T07:43:54.099Z,101381.65
2019-04-01T07:46:22.067Z,101386.20
2019-04-01T07:48:49.999Z,101385.17
2019-04-01T07:51:18.762Z,101386.52
2019-04-01T07:53:46.662Z,101393.61
2019-04-01T07:56:14.525Z,101389.58
2019-04-01T07:58:42.972Z,101388.95
2019-04-01T08:01:11.426Z,101392.48
2019-04-01T08:03:41.967Z,101389.69
2019-04-01T08:06:09.177Z,101398.05
2019-04-01T08:08:36.859Z,101394.48
2019-04-01T08:11:04.821Z,101400.32
2019-04-01T08:13:32.715Z,101397.41
2019-04-01T08:16:00.797Z,101399.59
2019-04-01T08:18:28.625Z,101398.95
2019-04-01T08:20:56.393Z,101399.78
2019-04-01T08:23:24.416Z,101396.05
2019-04-01T08:25:52.326Z,101397.91
2019-04-01T08:28:23.640Z,101394.25
2019-04-01T08:31:05.466Z,101401.95
2019-04-01T08:33:33.149Z,101402.52
2019-04-01T08:36:00.999Z,101397.38
2019-04-01T08:38:29.005Z,101396.71
2019-04-01T08:40:56.881Z,101396.79
2019-04-01T08:43:24.549Z,101404.18
2019-04-01T08:45:52.985Z,101399.19
2019-04-01T08:48:20.820Z,101396.59
2019-04-01T08:50:48.819Z,101394.91
2019-04-01T08:53:17.563Z,101388.53
2019-04-01T08:55:45.537Z,101388.53
2019-04-01T08:58:13.438Z,101389.17
2019-04-01T09:00:41.421Z,101387.48
2019-04-01T09:03:09.236Z,101385.83
2019-04-01T09:05:37.970Z,101385.97
2019-04-01T09:08:06.115Z,101384.36
2019-04-01T09:10:35.526Z,101386.80
2019-04-01T09:13:03.471Z,101382.44
2019-04-01T09:15:31.300Z,101383.46
2019-04-01T09:17:59.253Z,101377.13
2019-04-01T09:20:27.122Z,101377.38
2019-04-01T09:22:54.827Z,101378.45
2019-04-01T09:25:22.739Z,101376.42
2019-04-01T09:27:50.536Z,101374.77
2019-04-01T09:30:18.978Z,101381.00
2019-04-01T09:32:46.953Z,101373.66
2019-04-01T09:35:17.846Z,101367.77
2019-04-01T09:37:45.666Z,101377.75
2019-04-01T09:40:15.387Z,101379.20
2019-04-01T09:42:43.262Z,101369.23
2019-04-01T09:45:11.874Z,101367.05
2019-04-01T09:47:39.718Z,101368.49
2019-04-01T09:50:07.911Z,101365.59
2019-04-01T09:52:35.714Z,101372.09
2019-04-01T09:55:06.128Z,101357.42
2019-04-01T09:57:33.789Z,101359.45
2019-04-01T10:00:01.579Z,101358.85
2019-04-01T10:02:32.199Z,101359.55
2019-04-01T10:04:59.092Z,101358.84
2019-04-01T10:07:26.952Z,101359.89
2019-04-01T10:09:57.920Z,101358.94
2019-04-01T10:12:25.806Z,101351.35
2019-04-01T10:14:53.604Z,101344.91
2019-04-01T10:17:21.621Z,101347.42
2019-04-01T10:19:49.351Z,101340.31
2019-04-01T10:22:17.617Z,101346.51
2019-04-01T10:24:45.368Z,101336.50
2019-04-01T10:27:13.477Z,101331.80
2019-04-01T10:29:42.459Z,101335.00
2019-04-01T10:32:10.635Z,101339.06
2019-04-01T10:34:38.747Z,101336.39
2019-04-01T10:37:06.972Z,101332.50
2019-04-01T10:39:36.745Z,101334.59
2019-04-01T10:42:05.122Z,101323.82
2019-04-01T10:44:33.203Z,101327.06
2019-04-01T10:47:01.478Z,101320.15
2019-04-01T10:49:32.122Z,101325.21
2019-04-01T10:52:00.352Z,101315.32
2019-04-01T10:54:28.479Z,101321.10
2019-04-01T10:56:56.710Z,101326.55
2019-04-01T10:59:25.134Z,101316.13
2019-04-01T11:01:53.435Z,101329.69
2019-04-01T11:04:21.706Z,101321.22
2019-04-01T11:06:49.924Z,101321.13
2019-04-01T11:09:18.050Z,101319.14
2019-04-01T11:11:48.889Z,101322.66
2019-04-01T11:14:17.068Z,101319.34
2019-04-01T11:16:46.064Z,101311.09
2019-04-01T11:19:15.247Z,101306.20
2019-04-01T11:21:43.357Z,101308.22
2019-04-01T11:24:11.442Z,101307.06
2019-04-01T11:26:39.607Z,101299.36
2019-04-01T11:29:08.624Z,101299.36
2019-04-01T11:31:36.818Z,101294.31
2019-04-01T11:34:04.983Z,101292.44
2019-04-01T11:36:33.377Z,101296.64
2019-04-01T11:39:01.482Z,101296.64
2019-04-01T11:41:29.947Z,101295.78
2019-04-01T11:43:58.178Z,101292.52
2019-04-01T11:46:26.393Z,101279.99
2019-04-01T11:48:54.655Z,101279.99
2019-04-01T11:51:32.554Z,101284.66
2019-04-01T11:53:53.392Z,101278.29
2019-04-01T11:56:21.472Z,101278.29
2019-04-01T11:58:49.612Z,101274.77
2019-04-01T12:01:17.707Z,101268.37
2019-04-01T12:03:45.831Z,101265.36
2019-04-01T12:06:15.385Z,101265.36
2019-04-01T12:08:43.507Z,101263.16
2019-04-01T12:11:11.601Z,101254.52
2019-04-01T12:13:40.299Z,101252.69
2019-04-01T12:16:08.422Z,101252.69
2019-04-01T12:18:37.340Z,101237.88
2019-04-01T12:21:05.402Z,101239.90
2019-04-01T12:23:33.849Z,101241.47
2019-04-01T12:26:14.401Z,101239.71
2019-04-01T12:28:32.108Z,101239.71
2019-04-01T12:31:00.175Z,101233.08
2019-04-01T12:33:28.554Z,101227.27
2019-04-01T12:35:56.648Z,101225.97
2019-04-01T12:38:24.816Z,101225.97
2019-04-01T12:40:53.272Z,101218.38
2019-04-01T12:43:23.521Z,101213.61
2019-04-01T12:45:54.584Z,101200.10
2019-04-01T12:48:25.356Z,101200.10
2019-04-01T12:50:52.682Z,101215.80
2019-04-01T12:53:21.097Z,101215.80
2019-04-01T12:55:49.311Z,101207.94
2019-04-01T12:58:18.486Z,101203.11
2019-04-01T13:00:46.705Z,101201.19
2019-04-01T13:03:14.866Z,101201.19
2019-04-01T13:05:42.999Z,101190.28
2019-04-01T13:08:11.221Z,101186.86
2019-04-01T13:10:39.220Z,101182.59
2019-04-01T13:13:08.192Z,101186.25
2019-04-01T13:15:36.244Z,101180.36
2019-04-01T13:18:04.477Z,101175.69
2019-04-01T13:20:38.111Z,101175.78
2019-04-01T13:23:02.576Z,101166.03
2019-04-01T13:25:30.747Z,101177.53
2019-04-01T13:27:59.246Z,101172.87
2019-04-01T13:30:27.367Z,101163.70
2019-04-01T13:32:55.493Z,101168.47
2019-04-01T13:35:23.610Z,101159.63
2019-04-01T13:37:51.717Z,101157.03
2019-04-01T13:40:21.297Z,101152.11
2019-04-01T13:42:50.150Z,101153.33
2019-04-01T13:45:21.428Z,101153.24
2019-04-01T13:47:49.942Z,101148.08
2019-04-01T13:50:18.484Z,101153.22
2019-04-01T13:52:46.437Z,101152.94
2019-04-01T13:55:14.577Z,101154.82
2019-04-01T13:57:42.639Z,101144.55
2019-04-01T14:00:11.037Z,101141.41
2019-04-01T14:02:39.165Z,101140.62
2019-04-01T14:05:07.515Z,101145.77
2019-04-01T14:07:36.843Z,101128.92
2019-04-01T14:10:06.524Z,101128.92
2019-04-01T14:12:34.797Z,101117.38
2019-04-01T14:15:03.124Z,101117.38
2019-04-01T14:17:31.143Z,101123.30
2019-04-01T14:19:59.390Z,101106.95
2019-04-01T14:22:27.374Z,101109.81
2019-04-01T14:24:55.287Z,101110.88
2019-04-01T14:27:24.654Z,101104.29
2019-04-01T14:29:52.758Z,101102.06
2019-04-01T14:32:20.802Z,101092.68
2019-04-01T14:34:50.889Z,101090.66
2019-04-01T14:37:25.055Z,101090.66
2019-04-01T14:39:48.989Z,101079.15
2019-04-01T14:42:17.050Z,101084.99
2019-04-01T14:45:00.707Z,101087.28
2019-04-01T14:47:28.750Z,101079.05
2019-04-01T14:49:56.882Z,101083.72
2019-04-01T14:52:32.110Z,101074.57
2019-04-01T14:54:55.770Z,101076.31
2019-04-01T14:57:23.878Z,101074.73
2019-04-01T14:59:56.085Z,101076.24
2019-04-01T15:02:22.447Z,101071.13
2019-04-01T15:04:50.582Z,101071.13
2019-04-01T15:07:18.731Z,101070.78
2019-04-01T15:09:46.983Z,101061.55
2019-04-01T15:12:15.123Z,101061.55
2019-04-01T15:14:43.938Z,101059.67
2019-04-01T15:17:12.042Z,101059.64
2019-04-01T15:19:40.833Z,101051.77
2019-04-01T15:22:08.902Z,101043.16
2019-04-01T15:24:37.043Z,101048.22
2019-04-01T15:27:05.196Z,101042.09
2019-04-01T15:29:33.283Z,101044.80
2019-04-01T15:32:01.743Z,101038.92
2019-04-01T15:34:29.969Z,101044.38
2019-04-01T15:36:58.064Z,101040.50
2019-04-01T15:39:26.453Z,101037.63
2019-04-01T15:41:54.412Z,101027.98
2019-04-01T15:44:22.592Z,101033.50
2019-04-01T15:46:50.657Z,101030.77
2019-04-01T15:49:23.396Z,101028.41
2019-04-01T15:51:53.548Z,101028.41
2019-04-01T15:54:22.070Z,101029.91
2019-04-01T15:56:52.496Z,101033.26
2019-04-01T15:59:20.996Z,101021.48
2019-04-01T16:01:49.131Z,101028.45
2019-04-01T16:04:17.199Z,101029.34
2019-04-01T16:06:45.488Z,101020.56
2019-04-01T16:09:13.516Z,101024.50
2019-04-01T16:11:41.727Z,101033.02
2019-04-01T16:14:11.191Z,101025.70
2019-04-01T16:16:40.906Z,101032.27
2019-04-01T16:19:08.969Z,101019.25
2019-04-01T16:21:37.170Z,101034.69
2019-04-01T16:24:05.328Z,101020.96
2019-04-01T16:26:33.712Z,101023.27
2019-04-01T16:29:01.974Z,101023.27
2019-04-01T16:31:30.159Z,101011.88
2019-04-01T16:33:58.355Z,101011.88
2019-04-01T16:36:26.619Z,101021.77
2019-04-01T16:38:54.725Z,101019.68
2019-04-01T16:41:22.901Z,101019.68
2019-04-01T16:43:50.980Z,101021.98
2019-04-01T16:46:19.079Z,101019.27
2019-04-01T16:48:47.171Z,101017.18
2019-04-01T16:55:09.164Z,101021.45
2019-04-01T17:55:10.791Z,101055.84
2019-04-01T17:57:38.815Z,101062.11
2019-04-01T18:00:13.120Z,101055.13
2019-04-01T18:02:41.308Z,101065.38
2019-04-01T18:05:14.856Z,101061.05
2019-04-01T18:07:42.982Z,101063.09
2019-04-01T18:10:11.289Z,101056.12
2019-04-01T18:12:39.447Z,101062.03
2019-04-01T18:15:07.734Z,101062.03
2019-04-01T18:17:35.989Z,101063.50
2019-04-01T18:20:06.014Z,101069.16
2019-04-01T18:22:34.183Z,101068.34
2019-04-01T18:25:02.258Z,101068.34
2019-04-01T18:27:34.277Z,101066.55
2019-04-01T18:30:02.492Z,101065.52
2019-04-01T18:32:31.236Z,101068.27
2019-04-01T18:34:59.704Z,101063.26
2019-04-01T18:37:27.849Z,101069.28
2019-04-01T18:39:57.290Z,101064.27
2019-04-01T18:42:26.972Z,101069.67
2019-04-01T18:44:57.040Z,101074.46
2019-04-01T18:47:25.258Z,101076.63
2019-04-01T18:49:53.376Z,101069.53
2019-04-01T18:52:21.525Z,101075.18
2019-04-01T18:54:49.653Z,101072.06
2019-04-01T18:57:17.775Z,101065.22
2019-04-01T18:59:45.822Z,101076.75
2019-04-01T19:02:14.355Z,101071.47
2019-04-01T19:04:42.472Z,101076.16
2019-04-01T19:07:10.581Z,101073.98
2019-04-01T19:09:38.700Z,101077.47
2019-04-01T19:12:07.304Z,101078.90
2019-04-01T19:14:35.592Z,101076.25
2019-04-01T19:17:03.719Z,101078.38
2019-04-01T19:19:31.777Z,101071.30
2019-04-01T19:21:59.909Z,101070.91
2019-04-01T19:24:28.351Z,101072.56
2019-04-01T19:26:56.744Z,101072.43
2019-04-01T19:29:24.978Z,101062.43
2019-04-01T19:31:53.631Z,101060.61
2019-04-01T19:34:21.780Z,101066.89
2019-04-01T19:36:49.764Z,101060.11
2019-04-01T19:39:17.862Z,101061.39
2019-04-01T19:41:45.922Z,101068.34
2019-04-01T19:44:14.282Z,101069.69
2019-04-01T19:46:42.708Z,101071.72
2019-04-01T19:49:10.929Z,101050.55
2019-04-01T19:51:39.029Z,101062.40
2019-04-01T19:54:07.182Z,101064.91
2019-04-01T19:56:35.223Z,101057.95
2019-04-01T19:59:03.362Z,101070.03
2019-04-01T20:01:32.446Z,101063.86
2019-04-01T20:04:00.593Z,101062.63
2019-04-01T20:06:28.713Z,101067.46
2019-04-01T20:08:56.871Z,101061.02
2019-04-01T20:11:25.410Z,101064.73
2019-04-01T20:13:54.953Z,101075.19
2019-04-01T20:16:23.370Z,101079.94
2019-04-01T20:18:51.563Z,101070.14
2019-04-01T20:21:20.068Z,101072.83
2019-04-01T20:23:48.306Z,101078.83
2019-04-01T20:26:17.381Z,101076.37
2019-04-01T20:28:46.582Z,101076.16
2019-04-01T20:31:14.648Z,101079.42
2019-04-01T20:33:42.995Z,101078.52
2019-04-01T20:36:10.783Z,101079.99
2019-04-01T20:38:38.859Z,101082.67
2019-04-01T20:41:07.111Z,101077.09
2019-04-01T20:43:35.145Z,101075.20
2019-04-01T20:46:03.238Z,101075.49
2019-04-01T20:48:31.232Z,101069.65
2019-04-01T20:51:00.302Z,101069.48
2019-04-01T20:53:28.158Z,101066.33
2019-04-01T20:55:56.794Z,101062.70
2019-04-01T20:58:24.605Z,101060.64
2019-04-01T21:00:52.792Z,101055.67
2019-04-01T21:03:20.768Z,101056.74
2019-04-01T21:05:48.652Z,101055.64
2019-04-01T21:08:16.895Z,101053.21
2019-04-01T21:10:45.323Z,101060.07
2019-04-01T21:13:13.556Z,101053.73
2019-04-01T21:15:41.372Z,101048.69
2019-04-01T21:18:09.147Z,101042.69
2019-04-01T21:20:37.016Z,101047.45
2019-04-01T21:23:05.111Z,101039.77
2019-04-01T21:25:33.280Z,101040.82
2019-04-01T21:28:01.244Z,101040.09
2019-04-01T21:30:29.308Z,101042.96
2019-04-01T21:32:57.690Z,101045.42
2019-04-01T21:35:25.553Z,101037.69
2019-04-01T21:37:53.639Z,101036.05
2019-04-01T21:40:21.619Z,101035.42
2019-04-01T21:42:50.459Z,101033.05
2019-04-01T21:45:19.569Z,101029.00
2019-04-01T21:47:47.513Z,101027.97
2019-04-01T21:50:15.552Z,101020.36
2019-04-01T21:52:43.521Z,101024.85
2019-04-01T21:55:12.133Z,101013.65
2019-04-01T21:57:40.213Z,101018.11
2019-04-01T22:00:10.331Z,101014.94
2019-04-01T22:02:38.364Z,101019.08
2019-04-01T22:05:12.867Z,101011.53
2019-04-01T22:07:40.626Z,101012.65
2019-04-01T22:10:08.857Z,101007.59
2019-04-01T22:12:36.912Z,101009.50
2019-04-01T22:15:05.658Z,101005.07
2019-04-01T22:17:34.455Z,101006.58
2019-04-01T22:20:03.636Z,101011.94
2019-04-01T22:22:32.060Z,101002.09
2019-04-01T22:25:01.256Z,100995.92
2019-04-01T22:27:29.494Z,101001.72
2019-04-01T22:29:57.675Z,100999.09
2019-04-01T22:32:25.455Z,100998.41
2019-04-01T22:34:53.405Z,100991.80
2019-04-01T22:37:27.058Z,100993.37
2019-04-01T22:39:50.878Z,100989.78
2019-04-01T22:42:18.729Z,100992.78
2019-04-01T22:44:46.596Z,100992.92
2019-04-01T22:47:16.336Z,100987.86
2019-04-01T22:49:44.180Z,100988.02
2019-04-01T22:52:12.239Z,100981.66
2019-04-01T22:54:40.074Z,100978.73
2019-04-01T22:57:07.901Z,100978.48
2019-04-01T22:59:36.533Z,100976.31
2019-04-01T23:02:04.843Z,100977.16
2019-04-01T23:04:32.674Z,100979.23
2019-04-01T23:07:00.614Z,100985.63
2019-04-01T23:09:29.041Z,100982.31
2019-04-01T23:11:57.126Z,100980.62
2019-04-01T23:14:25.084Z,100973.05
2019-04-01T23:16:53.089Z,100972.67
2019-04-01T23:19:21.706Z,100976.31
2019-04-01T23:21:49.669Z,100976.06
2019-04-01T23:24:17.523Z,100975.31
2019-04-01T23:26:45.575Z,100971.00
2019-04-01T23:29:14.042Z,100969.70
2019-04-01T23:31:42.022Z,100966.90
2019-04-01T23:34:09.832Z,100968.77
2019-04-01T23:36:37.768Z,100964.45
2019-04-01T23:39:06.889Z,100957.70
2019-04-01T23:41:34.870Z,100952.86
2019-04-01T23:44:02.870Z,100953.97
2019-04-01T23:46:30.907Z,100950.77
2019-04-01T23:48:58.783Z,100941.05
2019-04-01T23:51:26.846Z,100938.69
2019-04-01T23:53:54.807Z,100936.25
2019-04-01T23:56:22.895Z,100930.55
2019-04-01T23:58:51.172Z,100936.94
